createdAt,value
2022-09-04T00:00:09.095Z,54.22
2022-09-04T00:03:16.968Z,54.32
2022-09-04T00:05:51.992Z,54.17
2022-09-04T00:08:36.825Z,54.23
2022-09-04T00:11:14.018Z,54.11
2022-09-04T00:13:49.088Z,54.16
2022-09-04T00:16:21.912Z,54.25
2022-09-04T00:19:02.447Z,54.30
2022-09-04T00:21:39.024Z,54.11
2022-09-04T00:24:12.904Z,54.31
2022-09-04T00:26:53.836Z,54.23
2022-09-04T00:29:30.383Z,54.27
2022-09-04T00:32:08.184Z,54.24
2022-09-04T00:34:55.848Z,54.16
2022-09-04T00:37:30.690Z,54.16
2022-09-04T00:40:06.562Z,54.25
2022-09-04T00:42:54.897Z,54.32
2022-09-04T00:45:50.993Z,54.21
2022-09-04T00:48:48.531Z,54.25
2022-09-04T00:51:30.485Z,54.21
2022-09-04T00:54:37.449Z,54.12
2022-09-04T00:57:34.846Z,54.13
2022-09-04T01:00:13.930Z,54.15
2022-09-04T01:03:25.283Z,54.20
2022-09-04T01:06:13.474Z,54.09
2022-09-04T01:09:02.908Z,54.00
2022-09-04T01:11:40.571Z,53.97
2022-09-04T01:14:19.357Z,53.97
2022-09-04T01:16:55.486Z,53.98
2022-09-04T01:19:49.892Z,53.93
2022-09-04T01:22:52.908Z,53.87
2022-09-04T01:25:34.850Z,53.65
2022-09-04T01:28:09.733Z,53.68
2022-09-04T01:31:02.224Z,53.58
2022-09-04T01:33:40.461Z,53.59
2022-09-04T01:36:15.086Z,53.61
2022-09-04T01:38:51.126Z,53.34
2022-09-04T01:41:26.297Z,53.48
2022-09-04T01:43:55.936Z,53.28
2022-09-04T01:46:51.842Z,53.22
2022-09-04T01:49:34.661Z,53.23
2022-09-04T01:52:32.856Z,53.36
2022-09-04T01:55:13.746Z,53.24
2022-09-04T01:57:55.077Z,53.11
2022-09-04T02:00:25.156Z,52.90
2022-09-04T02:03:02.275Z,52.96
2022-09-04T02:05:42.451Z,52.92
2022-09-04T02:08:30.025Z,52.87
2022-09-04T02:11:08.317Z,52.75
2022-09-04T02:13:51.078Z,52.58
2022-09-04T02:16:30.551Z,52.79
2022-09-04T02:19:07.617Z,52.80
2022-09-04T02:21:44.790Z,52.67
2022-09-04T02:24:23.171Z,52.61
2022-09-04T02:27:00.551Z,52.59
2022-09-04T02:29:39.931Z,52.44
2022-09-04T02:32:18.784Z,52.37
2022-09-04T02:34:55.887Z,52.44
2022-09-04T02:37:33.838Z,52.33
2022-09-04T02:40:18.136Z,52.25
2022-09-04T02:43:05.519Z,52.22
2022-09-04T02:45:44.758Z,52.15
2022-09-04T02:48:23.163Z,52.10
2022-09-04T02:51:06.774Z,51.85
2022-09-04T02:53:41.831Z,51.25
2022-09-04T02:56:31.395Z,51.19
2022-09-04T02:59:23.392Z,51.24
2022-09-04T03:01:59.169Z,51.46
2022-09-04T03:04:38.479Z,51.50
2022-09-04T03:07:13.950Z,51.47
2022-09-04T03:09:48.519Z,51.47
2022-09-04T03:12:31.612Z,51.80
2022-09-04T03:15:09.311Z,52.05
2022-09-04T03:17:48.202Z,52.22
2022-09-04T03:20:23.687Z,52.25
2022-09-04T03:22:58.730Z,52.42
2022-09-04T03:25:43.015Z,52.48
2022-09-04T03:28:20.791Z,52.68
2022-09-04T03:30:54.813Z,52.79
2022-09-04T03:33:32.774Z,52.94
2022-09-04T03:36:09.166Z,53.07
2022-09-04T03:38:53.391Z,53.26
2022-09-04T03:41:33.516Z,53.34
2022-09-04T03:44:16.092Z,53.42
2022-09-04T03:46:57.820Z,53.56
2022-09-04T03:49:43.633Z,53.67
2022-09-04T03:52:22.038Z,53.74
2022-09-04T03:55:04.991Z,53.88
2022-09-04T03:57:48.889Z,54.03
2022-09-04T04:00:20.331Z,54.13
2022-09-04T04:03:11.505Z,54.18
2022-09-04T04:05:54.015Z,54.35
2022-09-04T04:08:36.124Z,54.43
2022-09-04T04:11:21.551Z,54.58
2022-09-04T04:14:15.333Z,54.59
2022-09-04T04:16:56.937Z,54.72
2022-09-04T04:19:53.195Z,54.76
2022-09-04T04:22:55.525Z,54.85
2022-09-04T04:25:48.827Z,55.03
2022-09-04T04:28:37.998Z,55.12
2022-09-04T04:31:20.028Z,55.12
2022-09-04T04:33:58.833Z,55.21
2022-09-04T04:36:36.921Z,55.33
2022-09-04T04:39:19.497Z,55.44
2022-09-04T04:42:05.901Z,55.59
2022-09-04T04:45:10.308Z,55.60
2022-09-04T04:48:18.486Z,55.71
2022-09-04T04:50:59.295Z,55.71
2022-09-04T04:53:36.124Z,55.83
2022-09-04T04:56:13.811Z,55.80
2022-09-04T04:59:03.146Z,55.81
2022-09-04T05:01:42.834Z,55.85
2022-09-04T05:04:20.330Z,55.96
2022-09-04T05:06:55.120Z,55.96
2022-09-04T05:09:35.541Z,56.11
2022-09-04T05:12:16.850Z,56.11
2022-09-04T05:14:54.949Z,56.15
2022-09-04T05:17:34.058Z,56.18
2022-09-04T05:20:27.076Z,56.33
2022-09-04T05:23:07.224Z,56.32
2022-09-04T05:25:47.925Z,56.32
2022-09-04T05:28:26.690Z,56.27
2022-09-04T05:31:09.652Z,56.18
2022-09-04T05:33:49.767Z,56.28
2022-09-04T05:36:25.884Z,56.31
2022-09-04T05:39:03.613Z,56.35
2022-09-04T05:41:41.455Z,56.40
2022-09-04T05:44:22.388Z,56.28
2022-09-04T05:47:05.489Z,56.34
2022-09-04T05:49:58.977Z,56.35
2022-09-04T05:52:46.443Z,56.35
2022-09-04T05:55:35.671Z,56.28
2022-09-04T05:58:18.627Z,56.22
2022-09-04T06:00:55.628Z,56.07
2022-09-04T06:03:48.143Z,56.06
2022-09-04T06:06:26.967Z,56.05
2022-09-04T06:09:18.673Z,56.12
2022-09-04T06:12:10.919Z,58.99
2022-09-04T06:14:59.151Z,59.44
2022-09-04T06:17:46.929Z,59.32
2022-09-04T06:20:37.632Z,59.04
2022-09-04T06:23:50.975Z,58.33
2022-09-04T06:26:34.706Z,58.20
2022-09-04T06:29:25.234Z,58.03
2022-09-04T06:32:17.891Z,58.05
2022-09-04T06:35:26.438Z,57.75
2022-09-04T06:38:25.670Z,57.76
2022-09-04T06:41:18.784Z,57.52
2022-09-04T06:43:58.555Z,57.31
2022-09-04T06:46:38.320Z,57.09
2022-09-04T06:49:13.913Z,56.81
2022-09-04T06:51:53.736Z,56.62
2022-09-04T06:54:33.633Z,56.63
2022-09-04T06:57:17.373Z,56.26
2022-09-04T06:59:59.177Z,56.24
2022-09-04T07:02:47.906Z,55.97
2022-09-04T07:05:19.574Z,55.71
2022-09-04T07:07:59.249Z,55.56
2022-09-04T07:10:33.413Z,55.61
2022-09-04T07:13:41.966Z,55.45
2022-09-04T07:16:20.287Z,55.16
2022-09-04T07:19:18.419Z,55.19
2022-09-04T07:21:51.969Z,54.99
2022-09-04T07:24:46.638Z,54.17
2022-09-04T07:27:24.643Z,53.03
2022-09-04T07:30:00.606Z,52.74
2022-09-04T07:32:38.246Z,52.77
2022-09-04T07:35:13.321Z,52.80
2022-09-04T07:37:50.235Z,52.92
2022-09-04T07:40:24.273Z,52.91
2022-09-04T07:43:00.071Z,53.07
2022-09-04T07:45:34.485Z,53.05
2022-09-04T07:48:18.339Z,53.16
2022-09-04T07:51:03.242Z,52.83
2022-09-04T07:53:54.936Z,52.88
2022-09-04T07:56:37.697Z,53.07
2022-09-04T07:59:30.789Z,53.03
2022-09-04T08:02:16.670Z,52.88
2022-09-04T08:05:07.822Z,52.46
2022-09-04T08:08:06.812Z,52.61
2022-09-04T08:10:43.287Z,52.56
2022-09-04T08:13:27.121Z,52.53
2022-09-04T08:16:07.549Z,52.71
2022-09-04T08:18:52.793Z,52.67
2022-09-04T08:21:27.995Z,52.45
2022-09-04T08:24:29.352Z,52.28
2022-09-04T08:27:10.818Z,52.52
2022-09-04T08:30:02.713Z,52.22
2022-09-04T08:33:08.529Z,52.28
2022-09-04T08:35:47.590Z,52.41
2022-09-04T08:38:40.736Z,52.59
2022-09-04T08:41:48.107Z,52.39
2022-09-04T08:44:38.633Z,52.32
2022-09-04T08:47:51.318Z,52.02
2022-09-04T08:50:51.202Z,51.76
2022-09-04T08:53:37.676Z,51.82
2022-09-04T08:56:21.640Z,51.68
2022-09-04T08:59:31.245Z,52.01
2022-09-04T09:02:29.192Z,51.94
2022-09-04T09:05:30.809Z,52.03
2022-09-04T09:08:29.730Z,52.03
2022-09-04T09:11:34.957Z,51.90
2022-09-04T09:14:43.982Z,51.78
2022-09-04T09:17:16.559Z,51.99
2022-09-04T09:19:58.688Z,51.82
2022-09-04T09:22:48.448Z,51.88
2022-09-04T09:25:20.404Z,51.41
2022-09-04T09:28:31.181Z,51.78
2022-09-04T09:31:37.534Z,51.49
2022-09-04T09:34:45.762Z,51.34
2022-09-04T09:38:04.355Z,51.50
2022-09-04T09:41:28.306Z,51.17
2022-09-04T09:44:34.941Z,51.13
2022-09-04T09:47:43.204Z,51.40
2022-09-04T09:50:49.156Z,51.35
2022-09-04T09:53:48.912Z,51.27
2022-09-04T09:56:58.375Z,51.15
2022-09-04T10:00:06.887Z,51.05
2022-09-04T10:03:26.830Z,50.87
2022-09-04T10:06:41.186Z,50.71
2022-09-04T10:09:40.545Z,50.78
2022-09-04T10:12:44.168Z,50.67
2022-09-04T10:15:47.780Z,50.37
2022-09-04T10:18:36.780Z,50.53
2022-09-04T10:21:29.555Z,50.76
2022-09-04T10:24:21.571Z,50.79
2022-09-04T10:27:25.258Z,50.61
2022-09-04T10:30:16.557Z,50.68
2022-09-04T10:33:23.227Z,50.36
2022-09-04T10:36:19.197Z,50.18
2022-09-04T10:39:23.493Z,50.08
2022-09-04T10:42:08.453Z,50.41
2022-09-04T10:45:03.290Z,50.46
2022-09-04T10:47:58.514Z,50.42
2022-09-04T10:50:43.546Z,50.39
2022-09-04T10:53:38.471Z,50.34
2022-09-04T10:56:18.348Z,50.21
2022-09-04T10:59:24.302Z,50.03
2022-09-04T11:02:32.564Z,50.05
2022-09-04T11:05:19.875Z,49.71
2022-09-04T11:08:13.188Z,49.81
2022-09-04T11:10:58.384Z,49.58
2022-09-04T11:14:05.596Z,49.38
2022-09-04T11:17:11.672Z,49.52
2022-09-04T11:20:18.107Z,48.98
2022-09-04T11:23:28.812Z,49.05
2022-09-04T11:26:47.256Z,48.83
2022-09-04T11:29:55.420Z,49.19
2022-09-04T11:32:42.745Z,49.26
2022-09-04T11:35:46.609Z,49.00
2022-09-04T11:38:43.189Z,49.02
2022-09-04T11:41:51.624Z,48.85
2022-09-04T11:44:53.826Z,48.82
2022-09-04T11:48:00.927Z,48.92
2022-09-04T11:50:52.298Z,48.64
2022-09-04T11:53:49.208Z,48.63
2022-09-04T11:56:54.091Z,48.52
2022-09-04T11:59:46.071Z,48.87
2022-09-04T12:02:45.609Z,48.62
2022-09-04T12:05:39.096Z,48.62
2022-09-04T12:08:29.691Z,48.59
2022-09-04T12:11:19.221Z,48.84
2022-09-04T12:14:04.541Z,48.89
2022-09-04T12:17:14.990Z,48.86
2022-09-04T12:20:23.606Z,48.53
2022-09-04T12:23:31.086Z,48.49
2022-09-04T12:26:51.942Z,48.77
2022-09-04T12:29:52.327Z,48.66
2022-09-04T12:33:08.598Z,48.74
2022-09-04T12:36:14.261Z,48.38
2022-09-04T12:39:08.790Z,48.53
2022-09-04T12:41:49.893Z,48.41
2022-09-04T12:44:31.952Z,48.55
2022-09-04T12:47:13.671Z,48.37
2022-09-04T12:50:17.942Z,48.24
2022-09-04T12:53:00.455Z,47.68
2022-09-04T12:55:38.863Z,48.14
2022-09-04T12:58:20.661Z,47.88
2022-09-04T13:00:55.922Z,47.60
2022-09-04T13:03:37.013Z,47.62
2022-09-04T13:06:20.812Z,47.51
2022-09-04T13:09:01.274Z,47.26
2022-09-04T13:11:45.255Z,47.52
2022-09-04T13:14:33.666Z,47.03
2022-09-04T13:17:17.223Z,47.11
2022-09-04T13:19:54.890Z,46.82
2022-09-04T13:22:33.811Z,46.80
2022-09-04T13:25:12.308Z,46.90
2022-09-04T13:27:56.904Z,46.96
2022-09-04T13:30:28.276Z,46.48
2022-09-04T13:33:40.292Z,46.41
2022-09-04T13:36:18.425Z,46.01
2022-09-04T13:39:16.112Z,46.05
2022-09-04T13:42:06.453Z,45.88
2022-09-04T13:44:59.655Z,45.83
2022-09-04T13:47:39.521Z,45.64
2022-09-04T13:50:16.758Z,45.72
2022-09-04T13:52:55.372Z,45.82
2022-09-04T13:55:27.532Z,45.53
2022-09-04T13:58:03.741Z,45.53
2022-09-04T14:00:35.354Z,45.44
2022-09-04T14:03:11.967Z,45.31
2022-09-04T14:05:41.339Z,45.22
2022-09-04T14:08:17.901Z,45.30
2022-09-04T14:11:06.253Z,45.12
2022-09-04T14:13:51.428Z,45.05
2022-09-04T14:16:23.320Z,45.14
2022-09-04T14:19:16.817Z,45.11
2022-09-04T14:22:15.154Z,45.19
2022-09-04T14:24:54.020Z,45.31
2022-09-04T14:27:38.998Z,45.05
2022-09-04T14:30:14.897Z,45.25
2022-09-04T14:33:07.457Z,45.31
2022-09-04T14:36:00.916Z,45.20
2022-09-04T14:38:56.049Z,45.10
2022-09-04T14:41:36.493Z,45.38
2022-09-04T14:44:18.198Z,45.35
2022-09-04T14:47:00.342Z,45.33
2022-09-04T14:49:31.162Z,45.50
2022-09-04T14:52:10.713Z,45.71
2022-09-04T14:54:46.055Z,45.53
2022-09-04T14:57:22.668Z,45.75
2022-09-04T15:00:03.349Z,45.84
2022-09-04T15:02:38.329Z,45.88
2022-09-04T15:05:20.028Z,45.78
2022-09-04T15:07:56.175Z,45.86
2022-09-04T15:10:47.053Z,45.99
2022-09-04T15:13:45.494Z,46.04
2022-09-04T15:16:21.600Z,46.39
2022-09-04T15:19:00.468Z,46.60
2022-09-04T15:21:43.185Z,46.35
2022-09-04T15:24:24.469Z,46.47
2022-09-04T15:27:03.115Z,46.43
2022-09-04T15:29:41.227Z,46.49
2022-09-04T15:32:13.930Z,46.52
2022-09-04T15:34:43.693Z,46.65
2022-09-04T15:37:20.224Z,46.74
2022-09-04T15:40:01.170Z,46.68
2022-09-04T15:42:46.439Z,46.91
2022-09-04T15:45:24.789Z,46.89
2022-09-04T15:48:09.632Z,46.99
2022-09-04T15:50:57.512Z,47.05
2022-09-04T15:53:28.112Z,47.18
2022-09-04T15:56:29.366Z,47.08
2022-09-04T15:59:05.286Z,46.73
2022-09-04T16:01:44.761Z,47.00
2022-09-04T16:04:22.690Z,47.12
2022-09-04T16:06:57.527Z,47.33
2022-09-04T16:09:34.115Z,47.44
2022-09-04T16:12:10.841Z,47.48
2022-09-04T16:14:47.898Z,47.53
2022-09-04T16:17:24.840Z,47.46
2022-09-04T16:20:02.495Z,47.54
2022-09-04T16:22:39.529Z,47.53
2022-09-04T16:25:12.534Z,47.59
2022-09-04T16:27:49.857Z,47.66
2022-09-04T16:30:40.909Z,47.83
2022-09-04T16:33:27.709Z,47.92
2022-09-04T16:36:03.441Z,47.90
2022-09-04T16:38:51.972Z,47.69
2022-09-04T16:41:28.567Z,47.56
2022-09-04T16:44:23.896Z,47.56
2022-09-04T16:47:03.881Z,47.59
2022-09-04T16:49:40.726Z,47.66
2022-09-04T16:52:32.812Z,47.58
2022-09-04T16:55:11.920Z,47.55
2022-09-04T16:57:52.770Z,47.66
2022-09-04T17:00:23.681Z,47.75
2022-09-04T17:02:58.922Z,47.64
2022-09-04T17:05:35.462Z,47.80
2022-09-04T17:08:14.307Z,47.87
2022-09-04T17:11:08.873Z,47.97
2022-09-04T17:13:44.691Z,47.84
2022-09-04T17:16:19.338Z,47.71
2022-09-04T17:18:56.103Z,47.92
2022-09-04T17:26:00.899Z,47.88
2022-09-04T17:29:14.175Z,47.94
2022-09-04T17:29:17.544Z,48.02
2022-09-04T17:30:32.857Z,47.91
2022-09-04T17:36:56.793Z,47.94
2022-09-04T17:40:42.935Z,48.09
2022-09-04T17:40:47.895Z,48.15
2022-09-04T17:42:09.971Z,48.11
2022-09-04T17:44:50.072Z,48.24
2022-09-04T17:47:32.143Z,48.75
2022-09-04T17:50:10.436Z,49.10
2022-09-04T17:52:57.883Z,49.29
2022-09-04T17:55:39.132Z,49.45
2022-09-04T17:58:31.398Z,49.68
2022-09-04T18:01:15.302Z,49.78
2022-09-04T18:04:19.778Z,49.91
2022-09-04T18:06:57.502Z,50.12
2022-09-04T18:09:36.013Z,50.29
2022-09-04T18:12:16.065Z,50.38
2022-09-04T18:15:32.493Z,50.44
2022-09-04T18:17:57.111Z,50.61
2022-09-04T18:20:37.373Z,50.80
2022-09-04T18:23:51.019Z,50.78
2022-09-04T18:26:40.530Z,50.90
2022-09-04T18:34:41.251Z,50.88
2022-09-04T18:37:20.595Z,50.97
2022-09-04T18:37:24.551Z,51.15
2022-09-04T18:39:08.165Z,51.22
2022-09-04T18:50:24.568Z,51.34
2022-09-04T18:50:28.449Z,51.39
2022-09-04T18:50:50.080Z,51.23
2022-09-04T18:53:55.412Z,51.55
2022-09-04T18:56:30.955Z,51.68
2022-09-04T18:59:05.911Z,51.77
2022-09-04T19:01:43.939Z,51.93
2022-09-04T19:04:45.017Z,52.21
2022-09-04T19:07:31.450Z,52.28
2022-09-04T19:10:13.973Z,52.31
2022-09-04T19:13:09.550Z,52.50
2022-09-04T19:15:58.411Z,52.65
2022-09-04T19:18:41.338Z,52.84
2022-09-04T19:21:27.240Z,52.71
2022-09-04T19:24:09.380Z,52.87
2022-09-04T19:26:45.421Z,52.77
2022-09-04T19:29:21.944Z,52.94
2022-09-04T19:31:57.780Z,53.04
2022-09-04T19:34:42.173Z,53.27
2022-09-04T19:40:01.956Z,53.40
2022-09-04T19:45:56.309Z,53.55
2022-09-04T19:46:15.052Z,53.82
2022-09-04T19:46:27.702Z,53.93
2022-09-04T19:49:54.281Z,53.97
2022-09-04T19:53:24.321Z,54.14
2022-09-04T19:55:24.417Z,54.20
2022-09-04T19:58:06.375Z,55.99
2022-09-04T20:00:43.629Z,56.42
2022-09-04T20:03:30.070Z,56.51
2022-09-04T20:06:20.151Z,56.43
2022-09-04T20:09:04.990Z,56.18
2022-09-04T20:11:55.220Z,55.83
2022-09-04T20:14:42.882Z,56.00
2022-09-04T20:17:30.352Z,55.76
2022-09-04T20:20:05.498Z,55.71
2022-09-04T20:22:45.067Z,55.73
2022-09-04T20:25:27.038Z,55.65
2022-09-04T20:28:08.271Z,55.41
2022-09-04T20:30:43.352Z,55.48
2022-09-04T20:33:19.173Z,55.39
2022-09-04T20:35:53.318Z,54.48
2022-09-04T20:38:30.176Z,54.24
2022-09-04T20:41:08.663Z,54.08
2022-09-04T20:43:48.820Z,54.34
2022-09-04T20:52:42.793Z,54.54
2022-09-04T20:52:53.680Z,54.60
2022-09-04T20:53:07.911Z,54.84
2022-09-04T20:55:46.089Z,55.01
2022-09-04T21:03:11.155Z,55.39
2022-09-04T21:03:13.055Z,55.17
2022-09-04T21:04:43.365Z,55.68
2022-09-04T21:07:23.054Z,55.78
2022-09-04T21:10:08.141Z,56.02
2022-09-04T21:12:47.320Z,56.17
2022-09-04T21:15:35.935Z,56.28
2022-09-04T21:18:19.467Z,56.51
2022-09-04T21:21:25.689Z,56.58
2022-09-04T21:24:37.756Z,56.74
2022-09-04T21:27:22.361Z,57.06
2022-09-04T21:30:05.341Z,57.16
2022-09-04T21:33:21.499Z,57.25
2022-09-04T21:36:25.390Z,57.42
2022-09-04T21:39:18.754Z,57.51
2022-09-04T21:42:21.827Z,57.53
2022-09-04T21:45:12.036Z,57.55
2022-09-04T21:48:03.000Z,57.62
2022-09-04T21:50:54.594Z,57.77
2022-09-04T21:54:34.647Z,57.86
2022-09-04T22:02:30.298Z,58.05
2022-09-04T22:02:45.675Z,58.23
2022-09-04T22:03:46.557Z,58.26
2022-09-04T22:07:20.880Z,58.15
2022-09-04T22:13:26.709Z,58.36
2022-09-04T22:13:41.293Z,58.50
2022-09-04T22:15:25.044Z,58.55
2022-09-04T22:18:09.722Z,58.74
2022-09-04T22:20:56.259Z,58.89
2022-09-04T22:23:58.969Z,59.10
2022-09-04T22:27:14.575Z,59.13
2022-09-04T22:30:04.473Z,59.25
2022-09-04T22:33:05.119Z,59.36
2022-09-04T22:36:14.253Z,59.38
2022-09-04T22:39:02.436Z,59.67
2022-09-04T22:41:44.650Z,59.84
2022-09-04T22:44:30.385Z,60.17
2022-09-04T22:47:28.717Z,60.07
2022-09-04T22:50:49.767Z,60.10
2022-09-04T22:53:54.191Z,60.15
2022-09-04T22:56:43.053Z,60.19
2022-09-04T22:59:35.966Z,60.28
2022-09-04T23:02:55.420Z,60.29
2022-09-04T23:07:35.384Z,60.43
2022-09-04T23:13:47.245Z,60.48
2022-09-04T23:13:57.220Z,60.51
2022-09-04T23:16:00.322Z,60.50
2022-09-04T23:26:31.076Z,60.70
2022-09-04T23:26:32.847Z,60.66
2022-09-04T23:26:49.804Z,60.65
2022-09-04T23:28:28.267Z,60.82
2022-09-04T23:31:27.158Z,60.82
2022-09-04T23:34:40.065Z,60.86
2022-09-04T23:38:00.278Z,60.94
2022-09-04T23:40:50.567Z,61.14
2022-09-04T23:44:25.372Z,61.35
2022-09-04T23:47:48.046Z,61.38
2022-09-04T23:50:50.280Z,61.37
2022-09-04T23:53:47.992Z,61.49
2022-09-04T23:56:43.064Z,61.66
2022-09-04T23:59:47.161Z,61.86
